Time;durP1;ratioP1;P1;durP2;ratioP2;P2;SDS_P1;SDS_P2;PMS_P1;PMS_P2;Temp;Humidity;BMP_temperature;BMP_pressure;BME280_temperature;BME280_humidity;BME280_pressure;Samples;Min_cycle;Max_cycle;Signal;HPM_P1;HPM_P2
2022/11/06 00:02:00;;;;;;;4.47;0.90;;;13.70;99.90;;;;;;4996350;28;20026;-82
2022/11/06 00:04:28;;;;;;;4.63;1.15;;;13.70;99.90;;;;;;4989871;28;20022;-81
2022/11/06 00:06:54;;;;;;;3.17;0.80;;;13.70;99.90;;;;;;5018026;28;20019;-81
2022/11/06 00:09:20;;;;;;;4.65;1.15;;;13.70;99.90;;;;;;5022008;28;20018;-81
2022/11/06 00:11:48;;;;;;;6.20;1.20;;;13.70;99.90;;;;;;4997265;28;20026;-81
2022/11/06 00:14:14;;;;;;;6.28;0.90;;;13.70;99.90;;;;;;4992127;28;20030;-80
2022/11/06 00:16:41;;;;;;;9.63;1.50;;;13.80;99.90;;;;;;4995951;28;20022;-80
2022/11/06 00:19:07;;;;;;;2.90;1.05;;;13.70;99.90;;;;;;5004336;28;20061;-80
2022/11/06 00:21:34;;;;;;;4.85;1.30;;;13.70;99.90;;;;;;4994814;28;20101;-80
2022/11/06 00:24:02;;;;;;;5.05;1.00;;;13.70;99.90;;;;;;4993627;28;20107;-81
2022/11/06 00:26:29;;;;;;;6.45;1.02;;;13.70;99.90;;;;;;4991860;28;20014;-81
2022/11/06 00:28:56;;;;;;;5.00;0.95;;;13.70;99.90;;;;;;4976316;28;20114;-80
2022/11/06 00:31:24;;;;;;;5.63;1.08;;;13.80;99.90;;;;;;4997013;28;20479;-81
2022/11/06 00:33:51;;;;;;;4.60;0.90;;;13.70;99.90;;;;;;4995137;28;20014;-82
2022/11/06 00:36:20;;;;;;;2.72;0.93;;;13.70;99.90;;;;;;4995641;28;20033;-78
2022/11/06 00:38:46;;;;;;;5.80;1.10;;;13.70;99.90;;;;;;4995010;28;20538;-78
2022/11/06 00:41:14;;;;;;;4.90;1.05;;;13.70;99.90;;;;;;5002995;28;20030;-78
2022/11/06 00:43:40;;;;;;;5.65;0.85;;;13.70;99.90;;;;;;4993621;28;20026;-78
2022/11/06 00:46:10;;;;;;;2.25;0.80;;;13.80;99.90;;;;;;4994699;28;20023;-78
2022/11/06 00:48:37;;;;;;;4.07;1.00;;;13.70;99.90;;;;;;4994974;28;20061;-77
2022/11/06 00:51:27;;;;;;;7.82;1.58;;;13.70;99.90;;;;;;5027564;28;20487;-78
2022/11/06 00:53:59;;;;;;;2.05;0.80;;;13.80;99.90;;;;;;4993786;28;20487;-78
2022/11/06 00:56:25;;;;;;;3.92;1.20;;;13.80;99.90;;;;;;4994854;28;20022;-78
2022/11/06 00:58:51;;;;;;;5.65;1.52;;;13.70;99.90;;;;;;4994993;28;20038;-78
2022/11/06 01:01:22;;;;;;;4.38;1.13;;;13.70;99.90;;;;;;4977259;28;20034;-78
2022/11/06 01:03:56;;;;;;;5.70;1.48;;;13.80;99.90;;;;;;4977696;28;20079;-78
2022/11/06 01:06:23;;;;;;;6.88;1.40;;;13.70;99.90;;;;;;4980633;28;20091;-78
2022/11/06 01:08:50;;;;;;;2.95;0.93;;;13.70;99.90;;;;;;4986403;28;20030;-78
2022/11/06 01:11:18;;;;;;;4.30;1.10;;;13.70;99.90;;;;;;4991890;28;20042;-78
2022/11/06 01:13:45;;;;;;;4.82;1.00;;;13.70;99.90;;;;;;4995788;28;20018;-80
2022/11/06 01:16:13;;;;;;;6.72;1.08;;;13.70;99.90;;;;;;4995431;28;20028;-80
2022/11/06 01:18:40;;;;;;;2.25;0.95;;;13.60;99.90;;;;;;4994062;28;20054;-79
2022/11/06 01:21:09;;;;;;;5.28;1.20;;;13.70;99.90;;;;;;4997084;28;20030;-80
2022/11/06 01:23:35;;;;;;;5.00;1.10;;;13.70;99.90;;;;;;4974133;28;20038;-81
2022/11/06 01:26:03;;;;;;;4.90;1.17;;;13.70;99.90;;;;;;4995895;28;20033;-79
2022/11/06 01:28:29;;;;;;;2.45;0.85;;;13.70;99.90;;;;;;4979105;28;20118;-79
2022/11/06 01:30:55;;;;;;;4.97;1.25;;;13.70;99.90;;;;;;4974372;28;20023;-79
2022/11/06 01:33:21;;;;;;;6.57;1.30;;;13.70;99.90;;;;;;4979300;28;20069;-79
2022/11/06 01:35:49;;;;;;;5.55;1.10;;;13.70;99.90;;;;;;4982538;28;20539;-80
2022/11/06 01:38:14;;;;;;;3.42;1.05;;;13.70;99.90;;;;;;4986025;28;20097;-80
2022/11/06 01:40:45;;;;;;;4.93;1.40;;;13.70;99.90;;;;;;4974249;28;20554;-80
2022/11/06 01:43:41;;;;;;;2.55;0.85;;;13.70;99.90;;;;;;4975912;28;20038;-80
2022/11/06 01:46:07;;;;;;;5.65;1.17;;;13.70;99.90;;;;;;5000822;28;20105;-80
2022/11/06 01:48:32;;;;;;;5.45;1.30;;;13.70;99.90;;;;;;4972333;28;20110;-80
2022/11/06 01:50:58;;;;;;;3.28;0.95;;;13.70;99.90;;;;;;5070034;28;20014;-80
2022/11/06 01:53:25;;;;;;;7.55;1.27;;;13.70;99.90;;;;;;4976204;28;20031;-80
2022/11/06 01:55:54;;;;;;;7.50;1.35;;;13.70;99.90;;;;;;4993496;28;20033;-79
2022/11/06 01:58:23;;;;;;;4.10;1.00;;;13.70;99.90;;;;;;4995122;28;20198;-79
2022/11/06 02:00:49;;;;;;;3.63;0.93;;;13.70;99.90;;;;;;4994747;28;20107;-80
2022/11/06 02:03:15;;;;;;;5.38;1.27;;;13.70;99.90;;;;;;4994904;28;20092;-79
2022/11/06 02:05:41;;;;;;;2.85;1.02;;;13.70;99.90;;;;;;4994865;28;20023;-79
2022/11/06 02:08:13;;;;;;;6.90;1.27;;;13.80;99.90;;;;;;4977724;28;20019;-79
2022/11/06 02:10:39;;;;;;;5.15;1.10;;;13.70;99.90;;;;;;4977023;28;20482;-79
2022/11/06 02:13:24;;;;;;;6.18;1.10;;;13.70;99.90;;;;;;5005991;28;20432;-79
2022/11/06 02:16:20;;;;;;;1.15;0.60;;;13.70;99.90;;;;;;4996516;28;20043;-79
2022/11/06 02:18:49;;;;;;;3.50;1.00;;;13.70;99.90;;;;;;4996627;28;20119;-77
2022/11/06 02:21:33;;;;;;;4.38;1.17;;;13.60;99.90;;;;;;4998750;28;20431;-76
2022/11/06 02:24:17;;;;;;;3.30;1.00;;;13.60;99.90;;;;;;5017478;28;20030;-77
2022/11/06 02:27:01;;;;;;;;;;;13.60;99.90;;;;;;5000642;28;20018;-77
2022/11/06 02:29:35;;;;;;;1.60;0.90;;;13.50;99.90;;;;;;5017634;28;19912;-77
2022/11/06 02:32:08;;;;;;;2.58;1.05;;;13.50;99.90;;;;;;5017440;28;20517;-77
2022/11/06 02:34:37;;;;;;;4.38;1.02;;;13.50;99.90;;;;;;5017607;28;20089;-77
2022/11/06 02:37:12;;;;;;;3.15;1.10;;;13.50;99.90;;;;;;4999924;28;20106;-76
2022/11/06 02:39:40;;;;;;;3.97;1.10;;;13.50;99.90;;;;;;5003768;28;20034;-77
2022/11/06 02:42:09;;;;;;;6.25;1.08;;;13.50;99.90;;;;;;4980487;28;20034;-78
2022/11/06 02:44:37;;;;;;;2.80;0.93;;;13.50;99.90;;;;;;4979935;28;20031;-78
2022/11/06 02:47:07;;;;;;;2.97;1.08;;;13.50;99.90;;;;;;4997477;28;20117;-78
2022/11/06 02:49:53;;;;;;;5.25;1.25;;;13.50;99.90;;;;;;4980196;28;20036;-76
2022/11/06 02:52:49;;;;;;;3.42;0.88;;;13.50;99.90;;;;;;4997667;28;20025;-77
2022/11/06 02:55:20;;;;;;;3.08;1.08;;;13.40;99.90;;;;;;4988880;28;20030;-76
2022/11/06 02:57:51;;;;;;;2.95;1.10;;;13.40;99.90;;;;;;5012843;28;20018;-76
2022/11/06 03:00:17;;;;;;;4.93;1.20;;;13.40;99.90;;;;;;4999346;28;20048;-78
2022/11/06 03:03:06;;;;;;;3.90;1.00;;;13.40;99.90;;;;;;5017014;28;20022;-78
2022/11/06 03:05:55;;;;;;;4.18;1.20;;;13.40;99.90;;;;;;4995980;28;20081;-78
2022/11/06 03:08:32;;;;;;;3.88;1.17;;;13.40;99.90;;;;;;5000581;28;20510;-78
2022/11/06 03:11:04;;;;;;;3.65;1.27;;;13.40;99.90;;;;;;4996828;28;20032;-78
2022/11/06 03:13:46;;;;;;;4.47;1.15;;;13.40;99.90;;;;;;4997248;28;20422;-78
2022/11/06 03:16:17;;;;;;;4.22;1.45;;;13.40;99.90;;;;;;4996894;28;20053;-78
2022/11/06 03:18:59;;;;;;;3.38;1.33;;;13.40;99.90;;;;;;4997327;28;20106;-78
2022/11/06 03:21:37;;;;;;;4.72;1.60;;;13.40;99.90;;;;;;4997407;28;20023;-79
2022/11/06 03:24:26;;;;;;;4.65;1.52;;;13.50;99.90;;;;;;4996722;28;20399;-79
2022/11/06 03:26:53;;;;;;;4.32;1.40;;;13.50;99.90;;;;;;4997061;28;20021;-79
2022/11/06 03:29:32;;;;;;;5.63;1.35;;;13.50;99.90;;;;;;4979662;28;20035;-79
2022/11/06 03:32:05;;;;;;;3.83;1.20;;;13.50;99.90;;;;;;4978514;28;20030;-79
2022/11/06 03:34:40;;;;;;;4.70;1.40;;;13.50;99.90;;;;;;4979489;28;20557;-79
2022/11/06 03:37:15;;;;;;;3.20;1.30;;;13.50;99.90;;;;;;4996915;28;20026;-79
2022/11/06 03:39:49;;;;;;;3.90;1.38;;;13.50;99.90;;;;;;5000008;28;20384;-78
2022/11/06 03:42:24;;;;;;;3.42;1.38;;;13.50;99.90;;;;;;4979634;28;20026;-79
2022/11/06 03:44:54;;;;;;;3.83;1.45;;;13.50;99.90;;;;;;4996632;28;20027;-79
2022/11/06 03:47:33;;;;;;;3.03;1.15;;;13.50;99.90;;;;;;4996876;28;20072;-77
2022/11/06 03:50:12;;;;;;;4.63;1.25;;;13.50;99.90;;;;;;4996710;28;20432;-77
2022/11/06 03:52:43;;;;;;;3.13;1.00;;;13.50;99.90;;;;;;4996737;28;20029;-77
2022/11/06 03:55:15;;;;;;;5.30;1.20;;;13.60;99.90;;;;;;4984254;28;20030;-77
2022/11/06 03:57:43;;;;;;;5.65;1.48;;;13.60;99.90;;;;;;4996478;28;20023;-77
2022/11/06 04:00:10;;;;;;;3.13;1.13;;;13.60;99.90;;;;;;4979311;28;20030;-76
2022/11/06 04:02:41;;;;;;;5.70;1.40;;;13.60;99.90;;;;;;4996446;28;20022;-77
2022/11/06 04:05:16;;;;;;;3.42;1.20;;;13.60;99.90;;;;;;4996365;28;20030;-78
2022/11/06 04:16:10;;;;;;;5.20;1.58;;;13.60;99.90;;;;;;4996247;28;20122;-76
2022/11/06 04:18:35;;;;;;;2.65;1.27;;;13.60;99.90;;;;;;4996321;28;20375;-76
2022/11/06 04:21:58;;;;;;;4.38;1.48;;;13.70;99.90;;;;;;4996217;28;20038;-76
2022/11/06 04:27:35;;;;;;;2.78;1.15;;;13.70;99.90;;;;;;5016528;28;20044;-78
2022/11/06 04:30:11;;;;;;;3.78;1.50;;;13.70;99.90;;;;;;5000864;28;20034;-78
2022/11/06 04:32:58;;;;;;;1.90;1.10;;;13.70;99.90;;;;;;4996238;28;20022;-78
2022/11/06 04:35:58;;;;;;;1.70;0.88;;;13.70;99.90;;;;;;4996027;28;20022;-78
2022/11/06 04:38:46;;;;;;;1.27;0.82;;;13.70;99.90;;;;;;5000114;28;20018;-77
2022/11/06 04:41:37;;;;;;;3.85;1.13;;;13.70;99.90;;;;;;4995973;28;20025;-77
2022/11/06 04:44:07;;;;;;;1.98;0.93;;;13.70;99.90;;;;;;4995082;28;20035;-77
2022/11/06 04:46:39;;;;;;;1.33;0.88;;;13.70;99.90;;;;;;4995620;28;20122;-77
2022/11/06 04:49:07;;;;;;;3.78;1.27;;;13.70;99.90;;;;;;4995919;28;20031;-77
2022/11/06 04:51:36;;;;;;;1.63;1.10;;;13.70;99.90;;;;;;4995900;28;20050;-77
2022/11/06 04:54:03;;;;;;;2.22;1.02;;;13.80;99.90;;;;;;4978423;28;20066;-77
2022/11/06 04:56:32;;;;;;;2.13;1.00;;;13.80;99.90;;;;;;4995573;28;20040;-77
2022/11/06 04:58:58;;;;;;;2.00;0.80;;;13.70;99.90;;;;;;4996065;28;20113;-78
2022/11/06 05:01:23;;;;;;;2.20;0.82;;;13.80;99.90;;;;;;4978291;28;20064;-80
2022/11/06 05:03:49;;;;;;;2.30;0.77;;;13.70;99.90;;;;;;4995935;28;20037;-78
2022/11/06 05:06:15;;;;;;;1.77;0.90;;;13.80;99.90;;;;;;4995271;28;20368;-78
2022/11/06 05:08:41;;;;;;;1.38;0.68;;;13.70;99.90;;;;;;4995469;28;20320;-78
2022/11/06 05:11:06;;;;;;;1.63;0.80;;;13.70;99.90;;;;;;4984712;28;20482;-78
2022/11/06 05:13:32;;;;;;;2.22;0.82;;;13.70;99.90;;;;;;4995170;28;20552;-78
2022/11/06 05:15:59;;;;;;;1.40;0.70;;;13.70;99.90;;;;;;4978118;28;20033;-78
2022/11/06 05:18:26;;;;;;;1.77;0.80;;;13.70;99.90;;;;;;4977677;28;20031;-78
2022/11/06 05:22:56;;;;;;;2.67;0.90;;;13.70;99.90;;;;;;4995257;28;20026;-78
2022/11/06 05:23:37;;;;;;;1.98;0.98;;;13.70;99.90;;;;;;4995138;28;20068;-78
2022/11/06 05:26:04;;;;;;;2.17;0.80;;;13.70;99.90;;;;;;4994002;28;20029;-78
2022/11/06 05:28:30;;;;;;;2.22;0.90;;;13.70;99.90;;;;;;4995332;28;20540;-78
2022/11/06 05:30:56;;;;;;;1.73;0.77;;;13.70;99.90;;;;;;4995388;28;20026;-78
2022/11/06 05:33:22;;;;;;;2.25;0.98;;;13.70;99.90;;;;;;4977639;28;20027;-78
2022/11/06 05:35:48;;;;;;;2.20;0.80;;;13.70;99.90;;;;;;4995210;28;20472;-78
2022/11/06 05:38:14;;;;;;;1.73;0.80;;;13.70;99.90;;;;;;4997798;28;20053;-79
2022/11/06 05:40:39;;;;;;;1.58;0.70;;;13.70;99.90;;;;;;4995064;28;20106;-77
2022/11/06 05:43:05;;;;;;;3.25;1.00;;;13.70;99.90;;;;;;4995026;28;20475;-78
2022/11/06 05:45:31;;;;;;;2.13;0.82;;;13.70;99.90;;;;;;4994953;28;20075;-77
2022/11/06 05:47:56;;;;;;;1.50;0.70;;;13.70;99.90;;;;;;4994954;28;20103;-77
2022/11/06 05:50:22;;;;;;;1.50;0.68;;;13.70;99.90;;;;;;4994908;28;20103;-77
2022/11/06 05:52:48;;;;;;;0.98;0.70;;;13.70;99.90;;;;;;4994883;28;20164;-77
2022/11/06 05:55:14;;;;;;;1.00;0.57;;;13.70;99.90;;;;;;4994737;28;20035;-77
2022/11/06 05:57:39;;;;;;;1.35;0.70;;;13.70;99.90;;;;;;4994868;28;20030;-78
2022/11/06 06:00:06;;;;;;;2.13;0.60;;;13.70;99.90;;;;;;4994939;28;20083;-78
2022/11/06 06:02:31;;;;;;;2.13;0.70;;;13.70;99.90;;;;;;4994576;28;20037;-78
2022/11/06 06:04:57;;;;;;;1.33;0.50;;;13.70;99.90;;;;;;4995009;28;20030;-78
2022/11/06 06:07:23;;;;;;;2.03;0.70;;;13.70;99.90;;;;;;4977621;28;20026;-77
2022/11/06 06:09:48;;;;;;;1.40;0.60;;;13.70;99.90;;;;;;4977313;28;20368;-78
2022/11/06 06:12:14;;;;;;;1.92;0.70;;;13.60;99.90;;;;;;4994739;28;20026;-78
2022/11/06 06:14:40;;;;;;;0.75;0.50;;;13.70;99.90;;;;;;4994969;28;20030;-78
2022/11/06 06:17:06;;;;;;;1.95;0.60;;;13.60;99.90;;;;;;4994689;28;20030;-78
2022/11/06 06:19:31;;;;;;;1.13;0.50;;;13.60;99.90;;;;;;4994955;28;20030;-78
2022/11/06 06:21:57;;;;;;;2.95;0.73;;;13.70;99.90;;;;;;4977149;28;20466;-77
2022/11/06 06:24:23;;;;;;;1.15;0.60;;;13.70;99.90;;;;;;4994757;28;20031;-77
2022/11/06 06:26:48;;;;;;;0.52;0.40;;;13.70;99.90;;;;;;4994585;28;20023;-77
2022/11/06 06:29:15;;;;;;;2.03;0.60;;;13.70;99.90;;;;;;4994775;28;20023;-77
2022/11/06 06:31:40;;;;;;;1.85;0.50;;;13.70;99.90;;;;;;4994656;28;20031;-77
2022/11/06 06:34:06;;;;;;;1.70;0.70;;;13.70;99.90;;;;;;4994934;28;20106;-79
2022/11/06 06:36:33;;;;;;;0.82;0.50;;;13.70;99.90;;;;;;4994608;28;20038;-79
2022/11/06 06:38:58;;;;;;;2.90;0.70;;;13.60;99.90;;;;;;4997457;28;20494;-79
2022/11/06 06:41:24;;;;;;;0.68;0.50;;;13.60;99.90;;;;;;4994427;28;20038;-79
2022/11/06 06:43:50;;;;;;;1.08;0.40;;;13.60;99.90;;;;;;4976988;28;20034;-79
2022/11/06 06:46:16;;;;;;;1.63;0.50;;;13.60;99.90;;;;;;4993992;28;20031;-80
2022/11/06 06:48:41;;;;;;;1.13;0.45;;;13.70;99.90;;;;;;4976400;28;20495;-79
2022/11/06 06:51:07;;;;;;;1.55;0.50;;;13.70;99.90;;;;;;4977050;28;20057;-79
2022/11/06 06:53:33;;;;;;;0.80;0.45;;;13.60;99.90;;;;;;4994337;28;20031;-78
2022/11/06 06:56:00;;;;;;;2.15;0.50;;;13.60;99.90;;;;;;4994070;28;20035;-78
2022/11/06 06:58:27;;;;;;;1.05;0.43;;;13.70;99.90;;;;;;4994329;28;20083;-77
2022/11/06 07:00:52;;;;;;;1.77;0.60;;;13.70;99.90;;;;;;4992852;28;20030;-77
2022/11/06 07:03:18;;;;;;;0.93;0.50;;;13.60;99.90;;;;;;4993423;28;20037;-78
2022/11/06 07:05:45;;;;;;;0.80;0.70;;;13.60;99.90;;;;;;4993621;28;20406;-77
2022/11/06 07:08:11;;;;;;;0.88;0.40;;;13.70;99.90;;;;;;4978461;28;20144;-78
2022/11/06 07:10:37;;;;;;;0.93;0.47;;;13.60;99.90;;;;;;4997240;28;20056;-79
2022/11/06 07:13:04;;;;;;;1.05;0.47;;;13.70;99.90;;;;;;4979913;28;20019;-79
2022/11/06 07:15:31;;;;;;;1.50;0.45;;;13.70;99.90;;;;;;4997056;28;20022;-79
2022/11/06 07:18:04;;;;;;;1.88;0.38;;;13.70;99.90;;;;;;4980119;28;20549;-77
2022/11/06 07:20:30;;;;;;;0.50;0.40;;;13.70;99.90;;;;;;4997035;28;20018;-78
2022/11/06 07:22:57;;;;;;;0.90;0.60;;;13.60;99.90;;;;;;4997115;28;20058;-77
2022/11/06 07:25:23;;;;;;;1.15;0.60;;;13.70;99.90;;;;;;4996920;28;20114;-78
2022/11/06 07:27:48;;;;;;;0.75;0.43;;;13.70;99.90;;;;;;4997255;28;20068;-77
2022/11/06 07:30:14;;;;;;;1.00;0.50;;;13.70;99.90;;;;;;4979735;28;20397;-77
2022/11/06 07:32:40;;;;;;;2.05;0.60;;;13.70;99.90;;;;;;4997325;28;20018;-77
2022/11/06 07:35:06;;;;;;;2.08;0.50;;;13.60;99.90;;;;;;4996783;28;20077;-77
2022/11/06 07:37:32;;;;;;;2.75;0.45;;;13.60;99.90;;;;;;4997440;28;20027;-76
2022/11/06 07:39:58;;;;;;;0.80;0.43;;;13.70;99.90;;;;;;4999003;28;20042;-77
2022/11/06 07:42:23;;;;;;;0.75;0.55;;;13.70;99.90;;;;;;4979347;28;20026;-78
2022/11/06 07:44:53;;;;;;;0.93;0.50;;;13.70;99.90;;;;;;4994888;28;21448;-76
2022/11/06 07:47:18;;;;;;;0.70;0.40;;;13.70;99.90;;;;;;4978200;28;20130;-77
2022/11/06 07:49:44;;;;;;;1.00;0.63;;;13.70;99.90;;;;;;4996700;28;20056;-78
2022/11/06 07:52:09;;;;;;;0.80;0.52;;;13.70;99.90;;;;;;4995558;28;20063;-77
2022/11/06 07:54:35;;;;;;;1.35;0.60;;;13.70;99.90;;;;;;4996256;28;20041;-77
2022/11/06 07:57:01;;;;;;;0.55;0.40;;;13.70;99.90;;;;;;4978968;28;20034;-76
2022/11/06 07:59:26;;;;;;;0.77;0.40;;;13.80;99.90;;;;;;4994865;28;20099;-77
2022/11/06 08:01:52;;;;;;;1.20;0.40;;;13.70;99.90;;;;;;4977327;28;20029;-76
2022/11/06 08:04:17;;;;;;;1.08;0.50;;;13.70;99.90;;;;;;4994507;28;20026;-77
2022/11/06 08:06:43;;;;;;;0.57;0.40;;;13.80;99.90;;;;;;4977534;28;20588;-77
2022/11/06 08:09:09;;;;;;;0.70;0.40;;;13.80;99.90;;;;;;4994320;28;20029;-78
2022/11/06 08:11:35;;;;;;;1.42;0.50;;;13.80;99.90;;;;;;4977321;28;20026;-77
2022/11/06 08:14:01;;;;;;;1.35;0.50;;;13.80;99.90;;;;;;4996198;28;20038;-77
2022/11/06 08:16:26;;;;;;;0.77;0.52;;;13.80;99.90;;;;;;4996528;28;20019;-77
2022/11/06 08:18:52;;;;;;;0.88;0.50;;;13.80;99.90;;;;;;4996133;28;20031;-76
2022/11/06 08:21:18;;;;;;;1.00;0.52;;;13.80;99.90;;;;;;4996451;28;20026;-75
2022/11/06 08:23:43;;;;;;;0.55;0.50;;;13.80;99.90;;;;;;4995959;28;20042;-76
2022/11/06 08:26:10;;;;;;;0.93;0.50;;;13.80;99.90;;;;;;4996310;28;20029;-75
2022/11/06 08:28:36;;;;;;;1.02;0.40;;;13.80;99.90;;;;;;4995941;28;20452;-75
2022/11/06 08:31:06;;;;;;;1.08;0.40;;;13.80;99.90;;;;;;4996199;28;20077;-74
2022/11/06 08:33:32;;;;;;;1.10;0.68;;;13.90;99.90;;;;;;4996268;28;20058;-75
2022/11/06 08:36:05;;;;;;;1.98;0.65;;;13.90;99.90;;;;;;4996329;28;20041;-75
2022/11/06 08:38:30;;;;;;;1.42;0.70;;;13.80;99.90;;;;;;5000353;28;20037;-76
2022/11/06 08:40:56;;;;;;;2.28;0.63;;;13.80;99.90;;;;;;4978874;28;20031;-76
2022/11/06 08:43:25;;;;;;;0.88;0.50;;;13.80;99.90;;;;;;4995922;28;20034;-76
2022/11/06 08:45:51;;;;;;;1.30;0.60;;;13.80;99.90;;;;;;4978353;28;20027;-77
2022/11/06 08:48:16;;;;;;;1.08;0.50;;;13.80;99.90;;;;;;4978423;28;20454;-77
2022/11/06 08:50:42;;;;;;;1.25;0.50;;;13.90;99.90;;;;;;4978498;28;20035;-77
2022/11/06 08:53:08;;;;;;;0.95;0.50;;;13.80;99.90;;;;;;4995777;28;20081;-76
2022/11/06 08:55:37;;;;;;;1.20;0.57;;;13.90;99.90;;;;;;4995478;28;20072;-77
2022/11/06 08:58:03;;;;;;;0.75;0.43;;;13.80;99.90;;;;;;4995237;28;20027;-78
2022/11/06 09:00:29;;;;;;;0.60;0.40;;;13.90;99.90;;;;;;4984890;28;20030;-78
2022/11/06 09:02:59;;;;;;;2.00;0.60;;;13.80;99.90;;;;;;4995620;28;20026;-79
2022/11/06 09:05:34;;;;;;;1.17;0.50;;;13.80;99.90;;;;;;4995524;28;20058;-87
2022/11/06 09:07:59;;;;;;;1.30;0.50;;;13.60;99.90;;;;;;4997597;28;20026;-80
2022/11/06 09:10:26;;;;;;;0.82;0.30;;;13.60;99.90;;;;;;5014922;28;20381;-82
2022/11/06 09:12:52;;;;;;;0.30;0.30;;;13.50;99.90;;;;;;4997524;28;20030;-84
2022/11/06 09:15:19;;;;;;;0.60;0.40;;;13.50;99.90;;;;;;5002303;28;20060;-85
2022/11/06 09:17:46;;;;;;;0.65;0.40;;;13.50;99.90;;;;;;4995778;28;20486;-84
2022/11/06 09:35:22;;;;;;;0.93;0.30;;;13.50;99.90;;;;;;4843441;29;20029;-86
2022/11/06 09:37:51;;;;;;;0.52;0.40;;;13.60;99.90;;;;;;4822593;29;20044;-90
2022/11/06 09:40:39;;;;;;;0.85;0.40;;;13.60;99.90;;;;;;4865782;29;20076;-87
2022/11/06 09:43:44;;;;;;;0.93;0.60;;;13.60;99.90;;;;;;4934222;29;20031;-86
2022/11/06 10:04:27;;;;;;;2.08;0.60;;;13.60;99.90;;;;;;4859090;29;20494;-87
2022/11/06 10:06:52;;;;;;;1.67;0.40;;;13.50;99.90;;;;;;4863379;29;20046;-76
2022/11/06 10:09:18;;;;;;;1.10;0.35;;;13.50;99.90;;;;;;4881889;29;20514;-76
2022/11/06 10:11:59;;;;;;;2.47;0.57;;;13.50;99.90;;;;;;4940463;28;20035;-77
2022/11/06 10:14:43;;;;;;;1.85;0.50;;;13.50;99.90;;;;;;4994837;28;20429;-75
2022/11/06 10:17:37;;;;;;;1.00;0.60;;;13.60;99.90;;;;;;4994702;28;20030;-74
2022/11/06 10:20:15;;;;;;;0.52;0.30;;;13.60;99.90;;;;;;4994959;28;20026;-75
2022/11/06 10:23:10;;;;;;;0.57;0.40;;;13.60;99.90;;;;;;4994790;28;20090;-75
2022/11/06 10:25:44;;;;;;;1.02;0.52;;;13.60;99.90;;;;;;4985040;28;20045;-73
2022/11/06 10:28:31;;;;;;;0.93;0.45;;;13.60;99.90;;;;;;4994452;28;20047;-73
2022/11/06 10:31:07;;;;;;;0.95;0.43;;;13.70;99.90;;;;;;4990685;28;20026;-73
2022/11/06 10:33:40;;;;;;;0.88;0.38;;;13.80;99.90;;;;;;4994097;28;20023;-77
2022/11/06 10:36:12;;;;;;;2.63;0.80;;;13.80;99.90;;;;;;4995017;28;20090;-78
2022/11/06 10:38:42;;;;;;;2.53;0.77;;;13.80;99.90;;;;;;4978964;28;20026;-77
2022/11/06 10:41:17;;;;;;;2.45;0.50;;;13.80;99.90;;;;;;4993280;28;20083;-77
2022/11/06 10:43:56;;;;;;;2.47;0.82;;;13.80;99.90;;;;;;4997024;28;20029;-77
2022/11/06 10:46:45;;;;;;;1.50;0.47;;;13.80;99.90;;;;;;4997223;28;21164;-77
2022/11/06 10:49:34;;;;;;;2.28;0.68;;;13.90;99.90;;;;;;4997607;28;20031;-75
2022/11/06 10:52:21;;;;;;;2.75;0.80;;;13.90;99.90;;;;;;4979872;28;20109;-77
2022/11/06 10:54:57;;;;;;;1.13;0.50;;;14.00;99.90;;;;;;4978212;28;20049;-77
2022/11/06 10:57:27;;;;;;;3.55;0.77;;;14.00;99.90;;;;;;4997432;28;20076;-78
2022/11/06 10:59:53;;;;;;;1.73;0.90;;;13.90;99.90;;;;;;4974339;28;20423;-79
2022/11/06 11:02:30;;;;;;;2.05;0.60;;;13.90;99.90;;;;;;4980333;28;20019;-75
2022/11/06 11:04:56;;;;;;;2.50;0.80;;;13.80;99.90;;;;;;4978344;28;20034;-75
2022/11/06 11:07:22;;;;;;;2.78;0.90;;;13.90;99.90;;;;;;5006764;28;20030;-74
2022/11/06 11:09:50;;;;;;;2.58;0.70;;;13.90;99.90;;;;;;5009340;28;20027;-75
2022/11/06 11:12:28;;;;;;;2.20;0.60;;;13.90;99.90;;;;;;4995207;28;20032;-75
2022/11/06 11:15:27;;;;;;;3.30;0.70;;;13.90;99.90;;;;;;4997283;28;20391;-79
2022/11/06 11:18:32;;;;;;;2.50;0.90;;;14.00;99.90;;;;;;5004609;28;20095;-77
2022/11/06 11:21:27;;;;;;;4.32;0.90;;;13.90;99.90;;;;;;4936560;29;20082;-78
2022/11/06 11:24:09;;;;;;;2.72;0.85;;;14.00;99.90;;;;;;5000762;28;20086;-76
2022/11/06 11:26:41;;;;;;;2.38;0.98;;;14.00;99.90;;;;;;5016501;28;20029;-81
2022/11/06 11:29:24;;;;;;;3.05;1.13;;;14.10;99.90;;;;;;4999056;28;20030;-76
2022/11/06 11:31:54;;;;;;;4.85;0.90;;;14.10;99.90;;;;;;4985205;28;20054;-75
2022/11/06 11:34:25;;;;;;;2.33;0.75;;;14.20;99.90;;;;;;4996080;28;20384;-76
2022/11/06 11:36:56;;;;;;;4.78;0.98;;;14.10;99.90;;;;;;4996163;28;20022;-74
2022/11/06 11:39:29;;;;;;;4.65;1.00;;;14.20;99.90;;;;;;4999210;28;20048;-75
2022/11/06 11:42:28;;;;;;;4.25;1.10;;;14.10;99.90;;;;;;4996637;28;20101;-75
2022/11/06 11:45:09;;;;;;;3.22;1.00;;;14.10;99.90;;;;;;4978718;28;20027;-77
2022/11/06 11:47:36;;;;;;;4.50;0.88;;;14.10;99.90;;;;;;4996503;28;20511;-76
2022/11/06 11:50:28;;;;;;;2.90;0.98;;;14.10;99.90;;;;;;4978570;28;20023;-75
2022/11/06 11:53:15;;;;;;;2.03;0.88;;;14.10;99.90;;;;;;4993909;28;20105;-76
2022/11/06 11:55:44;;;;;;;4.40;1.10;;;14.00;99.90;;;;;;5005907;28;20469;-77
2022/11/06 11:58:26;;;;;;;4.35;1.00;;;14.00;99.90;;;;;;5013974;28;20018;-77
2022/11/06 12:00:58;;;;;;;3.50;0.80;;;14.00;99.90;;;;;;5014284;28;20401;-77
2022/11/06 12:03:27;;;;;;;3.35;0.90;;;14.00;99.90;;;;;;5015324;28;20014;-77
2022/11/06 12:06:02;;;;;;;5.40;1.30;;;14.00;99.90;;;;;;5014055;28;20104;-76
2022/11/06 12:08:28;;;;;;;3.58;0.80;;;14.10;99.90;;;;;;5010909;28;20136;-77
2022/11/06 12:11:02;;;;;;;2.35;0.63;;;14.00;99.90;;;;;;4996422;28;20026;-76
2022/11/06 12:13:27;;;;;;;4.20;0.80;;;14.10;99.90;;;;;;4996348;28;20029;-77
2022/11/06 12:15:55;;;;;;;3.90;1.15;;;14.00;99.90;;;;;;4996177;28;20394;-77
2022/11/06 12:18:35;;;;;;;8.75;0.93;;;14.00;99.90;;;;;;4996517;28;20019;-76
2022/11/06 12:21:05;;;;;;;4.18;1.13;;;14.00;99.90;;;;;;4996484;28;20026;-80
2022/11/06 12:23:42;;;;;;;4.03;1.27;;;14.00;99.90;;;;;;4996122;28;20018;-76
2022/11/06 12:26:13;;;;;;;2.42;0.80;;;14.00;99.90;;;;;;4978830;28;20035;-75
2022/11/06 12:28:42;;;;;;;3.33;1.00;;;14.10;99.90;;;;;;4996006;28;20026;-74
2022/11/06 12:31:31;;;;;;;4.25;1.33;;;14.20;99.90;;;;;;4978532;28;20112;-75
2022/11/06 12:33:59;;;;;;;2.28;0.93;;;14.30;99.90;;;;;;4978672;28;20406;-72
2022/11/06 12:36:29;;;;;;;2.45;0.88;;;14.40;99.90;;;;;;4996216;28;20109;-73
2022/11/06 12:39:00;;;;;;;7.25;1.40;;;14.40;99.90;;;;;;4997918;28;20031;-72
2022/11/06 12:41:33;;;;;;;4.80;0.85;;;14.30;99.90;;;;;;4995796;28;20022;-72
2022/11/06 12:43:58;;;;;;;5.77;1.20;;;14.30;99.90;;;;;;4995955;28;20031;-71
2022/11/06 12:46:54;;;;;;;4.88;1.23;;;14.30;99.90;;;;;;4995848;28;20088;-78
2022/11/06 12:49:29;;;;;;;3.55;0.95;;;14.20;99.90;;;;;;4995650;28;20593;-73
2022/11/06 12:52:00;;;;;;;2.03;0.80;;;14.20;99.90;;;;;;4978559;28;20033;-75
2022/11/06 12:54:56;;;;;;;4.78;1.08;;;14.30;99.90;;;;;;4977952;28;20026;-73
2022/11/06 12:57:37;;;;;;;3.05;0.90;;;14.30;99.90;;;;;;4996047;28;20065;-73
2022/11/06 13:00:10;;;;;;;6.68;1.15;;;14.40;99.90;;;;;;4995822;28;20034;-74
2022/11/06 13:03:01;;;;;;;3.80;1.25;;;14.40;99.90;;;;;;4977970;28;20026;-76
2022/11/06 13:05:42;;;;;;;4.30;0.95;;;14.40;99.90;;;;;;5006717;28;20041;-73
2022/11/06 13:08:20;;;;;;;3.95;0.90;;;14.50;99.90;;;;;;4997049;28;20482;-73
2022/11/06 13:10:45;;;;;;;6.13;1.70;;;14.50;99.90;;;;;;4995629;28;20023;-72
2022/11/06 13:13:50;;;;;;;8.65;2.33;;;14.50;99.90;;;;;;4995735;28;20528;-74
2022/11/06 13:16:44;;;;;;;8.40;2.10;;;14.50;99.90;;;;;;4977778;28;20054;-73
2022/11/06 13:19:17;;;;;;;;;;;14.60;99.90;;;;;;4981748;28;20030;-74
2022/11/06 13:22:13;;;;;;;5.72;1.83;;;14.60;99.90;;;;;;4995464;28;19906;-77
2022/11/06 13:24:58;;;;;;;4.18;1.70;;;14.60;99.90;;;;;;4994619;28;20026;-76
2022/11/06 13:27:38;;;;;;;7.70;1.50;;;14.70;99.90;;;;;;4979211;28;20026;-73
2022/11/06 13:30:16;;;;;;;6.40;1.63;;;14.80;99.90;;;;;;4995216;28;20031;-76
2022/11/06 13:32:46;;;;;;;7.35;1.65;;;14.80;99.90;;;;;;4995416;28;20033;-74
2022/11/06 13:35:18;;;;;;;5.88;2.17;;;14.80;99.90;;;;;;4995384;28;20918;-76
2022/11/06 13:37:47;;;;;;;10.27;1.60;;;14.80;99.90;;;;;;4978129;28;20034;-72
2022/11/06 13:40:26;;;;;;;5.53;1.40;;;14.80;99.90;;;;;;4996981;28;20034;-71
2022/11/06 13:43:20;;;;;;;6.57;1.60;;;14.70;99.90;;;;;;4995170;28;20520;-73
2022/11/06 13:45:50;;;;;;;9.88;1.60;;;14.70;99.90;;;;;;4980894;28;20061;-70
2022/11/06 13:49:00;;;;;;;4.35;1.05;;;14.70;99.90;;;;;;4994759;28;20078;-75
2022/11/06 13:51:59;;;;;;;8.20;1.45;;;14.70;99.90;;;;;;4994974;28;20072;-76
2022/11/06 13:54:45;;;;;;;7.57;1.17;;;14.70;99.90;;;;;;4994787;28;20030;-76
2022/11/06 13:58:05;;;;;;;5.35;1.23;;;14.70;99.90;;;;;;4994748;28;20023;-76
2022/11/06 14:00:49;;;;;;;7.70;1.25;;;14.60;99.90;;;;;;5014805;28;20042;-76